Terminal Aerodrome Forecast
Issued by NWS Billings, MT

Home | Current Version | Previous Version | Text Only | Print | Product List | Glossary Off
Versions: 1 2 3 4 5 6 7 8 9 10 11 12 13 14 15 16

000
FTUS45 KBYZ 011120
TAFMLS
TAF
KMLS 011120Z 0112/0212 VRB05KT P6SM BKN050 BKN110
     FM011600 18006KT P6SM VCSH BKN050 BKN110
     FM012000 27008KT P6SM BKN050 OVC100=

USA.gov is the U.S. government's official web portal to all federal, state and local government web resources and services.